createdAt,value
2022-11-05T00:00:01.545Z,23.40
2022-11-05T00:01:01.512Z,23.50
2022-11-05T00:02:01.543Z,23.30
2022-11-05T00:03:01.492Z,23.50
2022-11-05T00:04:01.559Z,22.40
2022-11-05T00:05:01.479Z,23.40
2022-11-05T00:06:01.471Z,21.60
2022-11-05T00:07:01.456Z,20.20
2022-11-05T00:08:01.449Z,19.80
2022-11-05T00:09:01.442Z,21.10
2022-11-05T00:10:01.429Z,19.80
2022-11-05T00:11:01.427Z,21.20
2022-11-05T00:12:01.414Z,19.80
2022-11-05T00:13:01.406Z,20.90
2022-11-05T00:14:01.395Z,19.40
2022-11-05T00:15:01.385Z,20.50
2022-11-05T00:16:01.372Z,19.60
2022-11-05T00:17:01.370Z,21.80
2022-11-05T00:18:01.363Z,17.30
2022-11-05T00:19:01.355Z,17.70
2022-11-05T00:20:01.343Z,17.20
2022-11-05T00:21:01.331Z,17.10
2022-11-05T00:22:01.327Z,19.90
2022-11-05T00:23:01.315Z,18.20
2022-11-05T00:24:01.304Z,17.90
2022-11-05T00:25:01.301Z,19.20
2022-11-05T00:26:01.283Z,20.50
2022-11-05T00:27:01.279Z,22.20
2022-11-05T00:28:01.276Z,20.70
2022-11-05T00:29:01.261Z,18.80
2022-11-05T00:30:01.256Z,19.40
2022-11-05T00:31:01.242Z,20.30
2022-11-05T00:32:01.235Z,18.40
2022-11-05T00:33:01.224Z,21.10
2022-11-05T00:34:01.218Z,19.10
2022-11-05T00:35:01.215Z,18.90
2022-11-05T00:36:01.197Z,19.80
2022-11-05T00:37:01.191Z,19.90
2022-11-05T00:38:01.183Z,20.20
2022-11-05T00:39:01.171Z,23.10
2022-11-05T00:40:01.168Z,20.50
2022-11-05T00:41:01.161Z,21.60
2022-11-05T00:42:01.143Z,20.90
2022-11-05T00:43:01.139Z,18.40
2022-11-05T00:44:01.127Z,21.00
2022-11-05T00:45:01.158Z,20.00
2022-11-05T00:46:01.115Z,19.50
2022-11-05T00:47:01.104Z,22.00
2022-11-05T00:48:01.086Z,21.10
2022-11-05T00:49:01.083Z,21.00
2022-11-05T00:50:01.076Z,21.10
2022-11-05T00:51:01.067Z,16.50
2022-11-05T00:52:01.061Z,20.90
2022-11-05T00:53:01.046Z,20.10
2022-11-05T00:54:01.039Z,22.60
2022-11-05T00:55:01.030Z,20.10
2022-11-05T00:56:01.020Z,21.90
2022-11-05T00:57:04.632Z,24.80
2022-11-05T00:58:00.998Z,19.80
2022-11-05T00:59:00.993Z,21.00
2022-11-05T01:00:00.981Z,22.00
2022-11-05T01:01:00.973Z,25.60
2022-11-05T01:02:01.068Z,22.80
2022-11-05T01:03:00.957Z,23.90
2022-11-05T01:04:00.958Z,21.30
2022-11-05T01:05:00.942Z,22.20
2022-11-05T01:06:00.932Z,25.00
2022-11-05T01:07:00.927Z,22.20
2022-11-05T01:08:00.911Z,24.10
2022-11-05T01:09:00.903Z,20.20
2022-11-05T01:10:00.896Z,23.80
2022-11-05T01:11:00.888Z,23.10
2022-11-05T01:12:00.876Z,22.80
2022-11-05T01:13:00.866Z,22.90
2022-11-05T01:14:00.859Z,21.70
2022-11-05T01:15:00.854Z,23.50
2022-11-05T01:16:00.841Z,21.40
2022-11-05T01:17:00.840Z,25.00
2022-11-05T01:18:00.924Z,21.40
2022-11-05T01:19:00.815Z,22.50
2022-11-05T01:20:00.818Z,20.20
2022-11-05T01:21:00.796Z,20.60
2022-11-05T01:22:00.789Z,20.70
2022-11-05T01:23:00.787Z,23.50
2022-11-05T01:24:00.779Z,26.00
2022-11-05T01:25:00.761Z,22.80
2022-11-05T01:26:00.757Z,22.40
2022-11-05T01:27:00.742Z,21.70
2022-11-05T01:28:00.743Z,20.00
2022-11-05T01:29:00.875Z,24.30
2022-11-05T01:30:00.714Z,21.60
2022-11-05T01:31:00.719Z,23.10
2022-11-05T01:32:00.699Z,25.70
2022-11-05T01:33:00.685Z,25.80
2022-11-05T01:34:00.712Z,23.40
2022-11-05T01:35:00.671Z,26.20
2022-11-05T01:36:00.665Z,22.90
2022-11-05T01:37:00.658Z,20.50
2022-11-05T01:38:00.646Z,23.20
2022-11-05T01:39:00.652Z,25.50
2022-11-05T01:40:00.651Z,25.00
2022-11-05T01:41:00.652Z,25.30
2022-11-05T01:42:00.611Z,27.60
2022-11-05T01:43:00.605Z,28.70
2022-11-05T01:44:00.610Z,29.70
2022-11-05T01:45:00.606Z,25.70
2022-11-05T01:46:00.575Z,27.30
2022-11-05T01:47:00.573Z,29.70
2022-11-05T01:48:00.561Z,26.00
2022-11-05T01:49:03.356Z,25.90
2022-11-05T01:50:00.537Z,27.30
2022-11-05T01:51:00.531Z,26.90
2022-11-05T01:52:00.526Z,27.50
2022-11-05T01:53:00.524Z,25.80
2022-11-05T01:54:00.509Z,27.60
2022-11-05T01:55:00.496Z,27.00
2022-11-05T01:56:00.489Z,28.80
2022-11-05T01:57:00.477Z,24.70
2022-11-05T01:58:00.469Z,27.10
2022-11-05T01:59:00.457Z,26.10
2022-11-05T02:00:00.454Z,28.40
2022-11-05T02:01:00.443Z,24.50
2022-11-05T02:02:00.574Z,30.20
2022-11-05T02:03:00.474Z,25.70
2022-11-05T02:04:00.412Z,25.10
2022-11-05T02:05:00.425Z,26.60
2022-11-05T02:06:00.399Z,24.90
2022-11-05T02:07:00.388Z,28.10
2022-11-05T02:08:00.381Z,32.00
2022-11-05T02:09:00.367Z,26.10
2022-11-05T02:10:00.363Z,25.90
2022-11-05T02:11:00.354Z,27.80
2022-11-05T02:12:00.339Z,28.60
2022-11-05T02:13:00.336Z,28.20
2022-11-05T02:14:00.331Z,30.90
2022-11-05T02:15:00.328Z,33.10
2022-11-05T02:16:00.311Z,28.20
2022-11-05T02:17:00.302Z,31.30
2022-11-05T02:18:00.299Z,27.40
2022-11-05T02:19:00.286Z,29.00
2022-11-05T02:20:00.272Z,32.40
2022-11-05T02:21:00.263Z,34.10
2022-11-05T02:22:00.250Z,34.10
2022-11-05T02:23:00.246Z,31.80
2022-11-05T02:24:00.241Z,36.00
2022-11-05T02:25:00.249Z,34.20
2022-11-05T02:26:00.226Z,36.00
2022-11-05T02:27:00.210Z,35.10
2022-11-05T02:28:00.209Z,34.20
2022-11-05T02:29:00.203Z,36.00
2022-11-05T02:30:00.179Z,33.70
2022-11-05T02:31:00.169Z,35.00
2022-11-05T02:32:00.164Z,35.10
2022-11-05T02:33:00.162Z,35.90
2022-11-05T02:34:00.149Z,40.20
2022-11-05T02:35:00.135Z,35.90
2022-11-05T02:36:00.121Z,37.40
2022-11-05T02:37:00.124Z,37.70
2022-11-05T02:38:00.110Z,40.60
2022-11-05T02:39:00.108Z,39.00
2022-11-05T02:40:00.103Z,41.70
2022-11-05T02:41:00.085Z,41.10
2022-11-05T02:42:04.719Z,37.20
2022-11-05T02:43:00.089Z,39.30
2022-11-05T02:44:00.050Z,39.70
2022-11-05T02:45:00.048Z,39.40
2022-11-05T02:46:00.040Z,41.90
2022-11-05T02:47:00.032Z,40.00
2022-11-05T02:48:00.017Z,40.90
2022-11-05T02:49:00.007Z,41.40
2022-11-05T02:49:59.998Z,43.10
2022-11-05T02:50:59.991Z,43.30
2022-11-05T02:51:59.988Z,42.20
2022-11-05T02:52:59.977Z,44.60
2022-11-05T02:53:59.959Z,45.40
2022-11-05T02:54:59.954Z,43.00
2022-11-05T02:55:59.947Z,45.30
2022-11-05T02:56:59.937Z,47.00
2022-11-05T02:57:59.925Z,49.10
2022-11-05T02:58:59.918Z,46.80
2022-11-05T02:59:59.903Z,48.50
2022-11-05T03:00:59.897Z,48.60
2022-11-05T03:01:59.999Z,47.20
2022-11-05T03:02:59.933Z,51.20
2022-11-05T03:03:59.877Z,46.40
2022-11-05T03:04:59.862Z,49.40
2022-11-05T03:05:59.851Z,49.30
2022-11-05T03:06:59.844Z,48.80
2022-11-05T03:07:59.841Z,51.60
2022-11-05T03:08:59.824Z,59.60
2022-11-05T03:09:59.814Z,52.30
2022-11-05T03:10:59.804Z,54.70
2022-11-05T03:11:59.801Z,54.00
2022-11-05T03:12:59.786Z,56.40
2022-11-05T03:13:59.775Z,55.20
2022-11-05T03:14:59.775Z,51.50
2022-11-05T03:15:59.756Z,55.30
2022-11-05T03:16:59.753Z,57.10
2022-11-05T03:17:59.744Z,56.00
2022-11-05T03:18:59.726Z,58.30
2022-11-05T03:19:59.721Z,57.00
2022-11-05T03:20:59.720Z,56.50
2022-11-05T03:21:59.700Z,54.10
2022-11-05T03:22:59.696Z,51.50
2022-11-05T03:23:59.686Z,53.10
2022-11-05T03:24:59.669Z,56.00
2022-11-05T03:25:59.663Z,61.30
2022-11-05T03:26:59.655Z,57.30
2022-11-05T03:27:59.647Z,54.60
2022-11-05T03:28:59.643Z,57.80
2022-11-05T03:29:59.629Z,59.60
2022-11-05T03:30:59.627Z,60.90
2022-11-05T03:31:59.606Z,54.90
2022-11-05T03:32:59.599Z,54.70
2022-11-05T03:33:59.590Z,56.60
2022-11-05T03:34:59.582Z,56.40
2022-11-05T03:35:59.573Z,57.00
2022-11-05T03:36:59.565Z,60.50
2022-11-05T03:37:59.550Z,62.50
2022-11-05T03:38:59.544Z,59.60
2022-11-05T03:39:59.555Z,57.70
2022-11-05T03:40:59.530Z,59.90
2022-11-05T03:41:59.515Z,63.00
2022-11-05T03:42:59.508Z,58.40
2022-11-05T03:43:59.493Z,58.70
2022-11-05T03:44:59.488Z,59.70
2022-11-05T03:45:59.483Z,62.10
2022-11-05T03:46:59.472Z,55.40
2022-11-05T03:47:59.468Z,58.80
2022-11-05T03:48:59.528Z,62.70
2022-11-05T03:49:59.443Z,65.40
2022-11-05T03:50:59.438Z,63.30
2022-11-05T03:51:59.420Z,57.30
2022-11-05T03:52:59.415Z,61.50
2022-11-05T03:53:59.411Z,62.70
2022-11-05T03:54:59.396Z,61.60
2022-11-05T03:55:59.430Z,59.90
2022-11-05T03:56:59.375Z,60.80
2022-11-05T03:57:59.368Z,58.50
2022-11-05T03:58:59.409Z,62.70
2022-11-05T03:59:59.353Z,63.10
2022-11-05T04:00:59.341Z,63.80
2022-11-05T04:01:59.498Z,62.60
2022-11-05T04:02:59.360Z,60.50
2022-11-05T04:03:59.313Z,60.00
2022-11-05T04:04:59.307Z,60.60
2022-11-05T04:05:59.293Z,72.40
2022-11-05T04:06:59.285Z,66.50
2022-11-05T04:07:59.273Z,63.70
2022-11-05T04:08:59.262Z,68.60
2022-11-05T04:09:59.257Z,71.60
2022-11-05T04:10:59.248Z,63.40
2022-11-05T04:11:59.239Z,62.50
2022-11-05T04:12:59.229Z,62.50
2022-11-05T04:13:59.217Z,67.70
2022-11-05T04:14:59.216Z,65.60
2022-11-05T04:15:59.198Z,67.20
2022-11-05T04:16:59.189Z,70.00
2022-11-05T04:17:59.182Z,67.40
2022-11-05T04:18:59.171Z,67.30
2022-11-05T04:19:59.172Z,65.10
2022-11-05T04:20:59.157Z,64.70
2022-11-05T04:21:59.140Z,63.70
2022-11-05T04:22:59.135Z,66.30
2022-11-05T04:23:59.124Z,65.10
2022-11-05T04:24:59.114Z,64.90
2022-11-05T04:25:59.105Z,69.30
2022-11-05T04:26:59.098Z,62.30
2022-11-05T04:27:59.088Z,66.00
2022-11-05T04:29:02.477Z,71.30
2022-11-05T04:29:59.074Z,63.90
2022-11-05T04:30:59.056Z,64.70
2022-11-05T04:31:59.050Z,66.90
2022-11-05T04:32:59.040Z,60.10
2022-11-05T04:33:59.027Z,65.00
2022-11-05T04:34:59.023Z,63.00
2022-11-05T04:35:59.010Z,66.80
2022-11-05T04:36:59.004Z,66.20
2022-11-05T04:37:58.998Z,63.60
2022-11-05T04:38:58.987Z,65.30
2022-11-05T04:39:58.979Z,60.00
2022-11-05T04:40:58.968Z,66.80
2022-11-05T04:41:58.953Z,67.80
2022-11-05T04:42:58.948Z,63.00
2022-11-05T04:43:58.940Z,64.80
2022-11-05T04:44:58.927Z,63.20
2022-11-05T04:45:58.923Z,67.40
2022-11-05T04:46:58.914Z,67.10
2022-11-05T04:47:58.898Z,64.50
2022-11-05T04:48:58.906Z,67.60
2022-11-05T04:49:58.879Z,68.60
2022-11-05T04:50:58.870Z,64.10
2022-11-05T04:51:58.862Z,64.70
2022-11-05T04:52:58.846Z,63.30
2022-11-05T04:53:58.848Z,66.20
2022-11-05T04:54:58.835Z,61.60
2022-11-05T04:55:58.824Z,68.00
2022-11-05T04:56:58.813Z,62.60
2022-11-05T04:57:58.806Z,60.40
2022-11-05T04:58:58.794Z,62.10
2022-11-05T04:59:58.784Z,62.30
2022-11-05T05:00:58.805Z,62.90
2022-11-05T05:01:58.845Z,70.40
2022-11-05T05:02:58.761Z,60.30
2022-11-05T05:03:58.747Z,61.20
2022-11-05T05:04:58.742Z,59.00
2022-11-05T05:06:03.522Z,64.70
2022-11-05T05:06:58.725Z,61.40
2022-11-05T05:07:58.709Z,64.00
2022-11-05T05:08:58.707Z,62.30
2022-11-05T05:09:58.691Z,63.20
2022-11-05T05:10:58.688Z,60.50
2022-11-05T05:11:58.670Z,61.30
2022-11-05T05:13:05.838Z,58.90
2022-11-05T05:15:02.648Z,57.00
2022-11-05T05:16:02.627Z,56.10
2022-11-05T05:17:55.725Z,57.00
2022-11-05T05:18:55.705Z,64.40
2022-11-05T05:20:59.668Z,58.80
2022-11-05T05:21:59.655Z,60.40
2022-11-05T05:23:52.581Z,54.30
2022-11-05T05:24:53.052Z,62.30
2022-11-05T05:26:56.526Z,59.60
2022-11-05T05:27:56.511Z,56.40
2022-11-05T05:30:00.485Z,59.70
2022-11-05T05:31:00.467Z,54.50
2022-11-05T05:32:53.561Z,57.30
2022-11-05T05:33:53.542Z,59.20
2022-11-05T05:35:57.515Z,55.10
2022-11-05T05:36:57.498Z,57.50
2022-11-05T05:38:50.617Z,62.70
2022-11-05T05:39:50.595Z,59.30
2022-11-05T05:41:54.576Z,61.90
2022-11-05T05:42:54.554Z,59.20
2022-11-05T05:44:58.527Z,63.00
2022-11-05T05:45:58.502Z,63.50
2022-11-05T05:48:02.498Z,65.50
2022-11-05T05:49:04.525Z,58.50
2022-11-05T05:51:06.458Z,54.30
2022-11-05T05:52:06.448Z,58.90
2022-11-05T05:53:06.438Z,58.80
2022-11-05T05:54:06.429Z,61.00
2022-11-05T05:55:06.419Z,62.10
2022-11-05T05:56:06.410Z,62.20
2022-11-05T05:57:06.400Z,65.10
2022-11-05T05:58:06.392Z,64.90
2022-11-05T05:59:06.383Z,65.30
2022-11-05T06:00:06.369Z,65.20
2022-11-05T06:01:06.361Z,62.40
2022-11-05T06:02:06.505Z,65.90
2022-11-05T06:03:06.480Z,56.70
2022-11-05T06:04:06.330Z,66.60
2022-11-05T06:05:06.322Z,61.90
2022-11-05T06:06:06.312Z,60.30
2022-11-05T06:07:06.303Z,61.10
2022-11-05T06:08:06.291Z,64.80
2022-11-05T06:09:06.283Z,71.10
2022-11-05T06:10:06.279Z,66.00
2022-11-05T06:11:06.298Z,63.10
2022-11-05T06:12:06.258Z,64.00
2022-11-05T06:13:06.245Z,64.80
2022-11-05T06:14:06.234Z,61.30
2022-11-05T06:15:06.224Z,65.60
2022-11-05T06:16:06.215Z,63.20
2022-11-05T06:17:06.203Z,63.90
2022-11-05T06:18:06.194Z,64.30
2022-11-05T06:19:06.184Z,62.90
2022-11-05T06:20:06.174Z,68.70
2022-11-05T06:21:06.166Z,67.60
2022-11-05T06:22:06.160Z,63.10
2022-11-05T06:23:06.147Z,61.50
2022-11-05T06:24:06.135Z,64.70
2022-11-05T06:25:06.128Z,62.40
2022-11-05T06:26:06.118Z,70.00
2022-11-05T06:27:06.112Z,70.10
2022-11-05T06:28:06.096Z,67.70
2022-11-05T06:29:06.086Z,67.50
2022-11-05T06:30:06.075Z,64.60
2022-11-05T06:31:06.073Z,64.00
2022-11-05T06:32:06.056Z,68.70
2022-11-05T06:33:06.050Z,64.50
2022-11-05T06:34:06.036Z,61.70
2022-11-05T06:35:06.027Z,67.60
2022-11-05T06:36:06.018Z,65.70
2022-11-05T06:37:06.007Z,62.10
2022-11-05T06:38:05.997Z,60.50
2022-11-05T06:39:05.993Z,65.00
2022-11-05T06:40:05.977Z,73.90
2022-11-05T06:41:10.319Z,64.10
2022-11-05T06:42:21.311Z,65.20
2022-11-05T06:43:05.947Z,61.10
2022-11-05T06:44:05.938Z,66.30
2022-11-05T06:45:05.930Z,60.00
2022-11-05T06:46:05.923Z,59.10
2022-11-05T06:47:05.908Z,61.90
2022-11-05T06:48:05.899Z,65.20
2022-11-05T06:49:05.890Z,60.70
2022-11-05T06:50:05.884Z,62.90
2022-11-05T06:51:05.870Z,71.60
2022-11-05T06:52:05.879Z,63.00
2022-11-05T06:53:05.856Z,64.80
2022-11-05T06:54:05.843Z,61.70
2022-11-05T06:55:05.831Z,62.20
2022-11-05T06:56:05.824Z,59.60
2022-11-05T06:57:05.814Z,62.00
2022-11-05T06:58:05.807Z,55.50
2022-11-05T06:59:05.800Z,60.20
2022-11-05T07:00:08.033Z,58.00
2022-11-05T07:01:05.837Z,56.80
2022-11-05T07:02:05.844Z,53.50
2022-11-05T07:03:05.759Z,55.00
2022-11-05T07:04:05.747Z,52.50
2022-11-05T07:05:05.737Z,57.20
2022-11-05T07:06:05.728Z,54.80
2022-11-05T07:07:05.718Z,56.10
2022-11-05T07:08:05.708Z,52.70
2022-11-05T07:09:05.698Z,60.40
2022-11-05T07:10:05.696Z,53.00
2022-11-05T07:11:05.678Z,50.40
2022-11-05T07:12:05.669Z,56.80
2022-11-05T07:13:08.528Z,58.60
2022-11-05T07:14:05.650Z,52.70
2022-11-05T07:15:05.641Z,53.80
2022-11-05T07:16:05.632Z,52.10
2022-11-05T07:17:05.622Z,52.40
2022-11-05T07:18:05.613Z,54.40
2022-11-05T07:19:05.602Z,47.20
2022-11-05T07:20:05.595Z,50.10
2022-11-05T07:21:05.584Z,47.40
2022-11-05T07:22:05.576Z,45.70
2022-11-05T07:23:05.564Z,46.00
2022-11-05T07:24:05.555Z,48.30
2022-11-05T07:25:05.546Z,42.30
2022-11-05T07:26:05.537Z,41.00
2022-11-05T07:27:05.528Z,43.00
2022-11-05T07:28:05.520Z,42.70
2022-11-05T07:29:05.509Z,46.20
2022-11-05T07:30:05.500Z,45.00
2022-11-05T07:31:05.489Z,41.60
2022-11-05T07:32:05.481Z,44.60
2022-11-05T07:33:05.474Z,45.50
2022-11-05T07:34:05.462Z,41.80
2022-11-05T07:35:05.451Z,41.10
2022-11-05T07:36:05.443Z,37.70
2022-11-05T07:37:05.432Z,36.30
2022-11-05T07:38:05.423Z,35.80
2022-11-05T07:39:05.414Z,35.00
2022-11-05T07:40:05.404Z,36.40
2022-11-05T07:41:05.397Z,36.50
2022-11-05T07:42:05.387Z,35.60
2022-11-05T07:43:05.384Z,32.30
2022-11-05T07:44:05.369Z,37.00
2022-11-05T07:45:05.360Z,34.60
2022-11-05T07:46:07.594Z,32.60
2022-11-05T07:47:05.348Z,34.50
2022-11-05T07:48:05.346Z,31.00
2022-11-05T07:49:05.323Z,31.30
2022-11-05T07:50:05.315Z,35.20
2022-11-05T07:51:05.306Z,28.00
2022-11-05T07:52:05.307Z,27.50
2022-11-05T07:53:05.295Z,30.00
2022-11-05T07:54:05.278Z,30.70
2022-11-05T07:55:05.266Z,26.50
2022-11-05T07:56:05.258Z,27.80
2022-11-05T07:57:05.250Z,25.50
2022-11-05T07:58:05.240Z,27.20
2022-11-05T07:59:05.228Z,28.10
2022-11-05T08:00:05.221Z,30.10
2022-11-05T08:01:05.316Z,23.50
2022-11-05T08:02:05.388Z,28.70
2022-11-05T08:03:09.301Z,28.30
2022-11-05T08:04:05.186Z,27.90
2022-11-05T08:05:05.177Z,29.70
2022-11-05T08:06:05.169Z,29.60
2022-11-05T08:07:05.157Z,29.30
2022-11-05T08:08:05.150Z,32.30
2022-11-05T08:09:05.138Z,30.90
2022-11-05T08:10:05.133Z,29.10
2022-11-05T08:11:05.120Z,30.40
2022-11-05T08:12:05.111Z,32.80
2022-11-05T08:13:05.099Z,33.50
2022-11-05T08:14:05.096Z,31.30
2022-11-05T08:15:05.083Z,26.00
2022-11-05T08:16:05.079Z,32.00
2022-11-05T08:17:05.064Z,30.30
2022-11-05T08:18:05.059Z,25.00
2022-11-05T08:19:05.047Z,24.70
2022-11-05T08:20:05.039Z,25.60
2022-11-05T08:21:05.028Z,23.20
2022-11-05T08:22:05.024Z,28.00
2022-11-05T08:23:05.010Z,23.80
2022-11-05T08:24:05.001Z,27.30
2022-11-05T08:25:06.893Z,23.40
2022-11-05T08:26:04.983Z,22.30
2022-11-05T08:27:04.971Z,24.60
2022-11-05T08:28:04.966Z,25.10
2022-11-05T08:29:04.956Z,26.20
2022-11-05T08:30:04.949Z,21.20
2022-11-05T08:31:04.937Z,23.40
2022-11-05T08:32:04.930Z,20.10
2022-11-05T08:33:04.918Z,23.00
2022-11-05T08:34:04.910Z,23.80
2022-11-05T08:35:04.901Z,25.90
2022-11-05T08:36:04.892Z,27.20
2022-11-05T08:37:04.883Z,25.10
2022-11-05T08:38:04.877Z,30.50
2022-11-05T08:39:04.864Z,24.50
2022-11-05T08:40:04.856Z,22.20
2022-11-05T08:41:04.860Z,22.00
2022-11-05T08:42:04.838Z,25.70
2022-11-05T08:43:04.834Z,25.50
2022-11-05T08:44:04.821Z,23.20
2022-11-05T08:45:04.812Z,23.20
2022-11-05T08:46:04.802Z,22.30
2022-11-05T08:47:04.793Z,24.70
2022-11-05T08:48:04.784Z,24.60
2022-11-05T08:49:04.777Z,22.40
2022-11-05T08:50:04.773Z,24.80
2022-11-05T08:51:04.756Z,21.30
2022-11-05T08:52:04.748Z,22.80
2022-11-05T08:53:04.739Z,21.60
2022-11-05T08:54:04.731Z,21.20
2022-11-05T08:55:04.721Z,22.10
2022-11-05T08:56:04.712Z,22.30
2022-11-05T08:57:04.704Z,20.50
2022-11-05T08:58:04.694Z,20.60
2022-11-05T08:59:04.685Z,22.10
2022-11-05T09:00:04.759Z,18.30
2022-11-05T09:01:05.409Z,24.40
2022-11-05T09:02:04.741Z,19.30
2022-11-05T09:03:04.650Z,21.30
2022-11-05T09:04:04.647Z,26.80
2022-11-05T09:05:04.633Z,23.20
2022-11-05T09:06:04.624Z,23.50
2022-11-05T09:07:04.613Z,17.50
2022-11-05T09:08:04.606Z,17.10
2022-11-05T09:09:04.594Z,17.10
2022-11-05T09:10:04.588Z,24.30
2022-11-05T09:11:04.579Z,24.30
2022-11-05T09:12:13.094Z,23.30
2022-11-05T09:13:04.568Z,21.90
2022-11-05T09:14:04.551Z,22.10
2022-11-05T09:15:04.541Z,21.60
2022-11-05T09:16:04.532Z,20.70
2022-11-05T09:17:04.525Z,20.60
2022-11-05T09:18:04.515Z,19.70
2022-11-05T09:19:04.506Z,21.90
2022-11-05T09:20:04.501Z,20.80
2022-11-05T09:21:04.495Z,19.20
2022-11-05T09:22:04.479Z,23.70
2022-11-05T09:23:04.470Z,22.20
2022-11-05T09:24:04.461Z,19.10
2022-11-05T09:25:04.468Z,19.80
2022-11-05T09:26:04.442Z,21.20
2022-11-05T09:27:04.434Z,21.80
2022-11-05T09:28:04.426Z,20.80
2022-11-05T09:29:04.416Z,17.70
2022-11-05T09:30:04.410Z,16.80
2022-11-05T09:31:04.397Z,23.70
2022-11-05T09:32:04.624Z,18.30
2022-11-05T09:33:04.381Z,19.90
2022-11-05T09:34:04.372Z,16.60
2022-11-05T09:35:04.362Z,19.80
2022-11-05T09:36:04.355Z,18.80
2022-11-05T09:37:04.345Z,23.00
2022-11-05T09:38:04.335Z,18.80
2022-11-05T09:39:04.328Z,21.00
2022-11-05T09:40:04.318Z,15.90
2022-11-05T09:41:04.307Z,21.90
2022-11-05T09:42:04.299Z,20.70
2022-11-05T09:43:04.291Z,23.60
2022-11-05T09:44:04.284Z,16.40
2022-11-05T09:45:04.277Z,16.30
2022-11-05T09:46:04.264Z,16.90
2022-11-05T09:47:04.257Z,17.80
2022-11-05T09:48:04.246Z,19.00
2022-11-05T09:49:04.253Z,19.70
2022-11-05T09:50:04.227Z,21.10
2022-11-05T09:51:04.220Z,18.50
2022-11-05T09:52:04.214Z,15.70
2022-11-05T09:53:04.202Z,18.40
2022-11-05T09:54:04.193Z,17.70
2022-11-05T09:55:04.183Z,18.10
2022-11-05T09:56:04.183Z,18.70
2022-11-05T09:57:04.166Z,14.10
2022-11-05T09:58:04.157Z,15.70
2022-11-05T09:59:04.151Z,17.00
2022-11-05T10:00:04.140Z,13.50
2022-11-05T10:01:04.176Z,19.70
2022-11-05T10:02:04.264Z,20.00
2022-11-05T10:03:04.114Z,16.40
2022-11-05T10:04:04.103Z,14.30
2022-11-05T10:05:09.398Z,13.90
2022-11-05T10:06:04.086Z,14.00
2022-11-05T10:07:04.080Z,14.60
2022-11-05T10:08:04.068Z,13.30
2022-11-05T10:09:04.062Z,12.50
2022-11-05T10:10:04.052Z,16.20
2022-11-05T10:11:04.042Z,14.90
2022-11-05T10:12:04.038Z,13.30
2022-11-05T10:13:04.025Z,14.00
2022-11-05T10:14:04.019Z,13.80
2022-11-05T10:15:04.008Z,13.50
2022-11-05T10:16:03.998Z,11.70
2022-11-05T10:17:03.989Z,18.20
2022-11-05T10:18:03.994Z,15.10
2022-11-05T10:19:03.972Z,14.90
2022-11-05T10:20:04.033Z,14.90
2022-11-05T10:21:03.959Z,12.20
2022-11-05T10:22:06.902Z,15.80
2022-11-05T10:23:03.937Z,15.50
2022-11-05T10:24:03.929Z,13.00
2022-11-05T10:25:03.919Z,12.10
2022-11-05T10:26:03.912Z,12.90
2022-11-05T10:27:03.904Z,14.50
2022-11-05T10:28:03.892Z,12.30
2022-11-05T10:29:03.885Z,12.80
2022-11-05T10:30:03.876Z,13.30
2022-11-05T10:31:03.866Z,12.80
2022-11-05T10:32:03.858Z,12.10
2022-11-05T10:33:03.855Z,15.50
2022-11-05T10:34:03.842Z,11.40
2022-11-05T10:35:03.834Z,12.30
2022-11-05T10:36:03.824Z,12.20
2022-11-05T10:37:03.822Z,13.40
2022-11-05T10:38:03.805Z,12.50
2022-11-05T10:39:03.800Z,16.90
2022-11-05T10:40:03.788Z,13.50
2022-11-05T10:41:03.780Z,12.10
2022-11-05T10:42:03.771Z,8.90
2022-11-05T10:43:03.776Z,11.10
2022-11-05T10:44:03.754Z,12.30
2022-11-05T10:45:03.752Z,11.20
2022-11-05T10:46:03.739Z,10.30
2022-11-05T10:47:03.730Z,11.40
2022-11-05T10:48:03.720Z,12.10
2022-11-05T10:49:03.713Z,12.00
2022-11-05T10:50:03.711Z,12.60
2022-11-05T10:51:03.696Z,13.80
2022-11-05T10:52:03.687Z,11.60
2022-11-05T10:53:03.678Z,9.30
2022-11-05T10:54:03.674Z,14.10
2022-11-05T10:55:03.661Z,11.60
2022-11-05T10:56:03.653Z,10.60
2022-11-05T10:57:03.643Z,13.20
2022-11-05T10:58:03.636Z,12.50
2022-11-05T10:59:07.994Z,12.80
2022-11-05T11:00:03.619Z,12.20
2022-11-05T11:01:03.696Z,11.90
2022-11-05T11:02:03.755Z,10.80
2022-11-05T11:03:03.593Z,15.10
2022-11-05T11:04:03.583Z,10.70
2022-11-05T11:05:03.576Z,10.80
2022-11-05T11:06:03.572Z,12.80
2022-11-05T11:07:03.561Z,12.20
2022-11-05T11:08:03.554Z,11.30
2022-11-05T11:09:03.549Z,10.60
2022-11-05T11:10:03.532Z,12.00
2022-11-05T11:11:03.527Z,11.60
2022-11-05T11:12:03.519Z,10.80
2022-11-05T11:13:03.514Z,13.00
2022-11-05T11:14:10.670Z,10.80
2022-11-05T11:16:07.501Z,12.20
2022-11-05T11:17:07.487Z,10.10
2022-11-05T11:19:00.422Z,10.10
2022-11-05T11:20:00.405Z,10.50
2022-11-05T11:22:04.397Z,11.20
2022-11-05T11:23:04.371Z,12.80
2022-11-05T11:24:57.274Z,9.90
2022-11-05T11:25:57.261Z,11.10
2022-11-05T11:27:50.202Z,15.80
2022-11-05T11:28:50.182Z,12.00
2022-11-05T11:30:54.175Z,15.60
2022-11-05T11:31:54.157Z,13.20
2022-11-05T11:33:47.263Z,12.30
2022-11-05T11:34:47.248Z,12.20
2022-11-05T11:36:51.232Z,12.70
2022-11-05T11:37:51.213Z,10.50
2022-11-05T11:39:55.215Z,11.60
2022-11-05T11:40:55.208Z,8.80
2022-11-05T11:42:48.304Z,10.40
2022-11-05T11:43:48.287Z,8.90
2022-11-05T11:45:41.392Z,9.50
2022-11-05T11:46:41.372Z,12.10
2022-11-05T11:48:45.377Z,10.90
2022-11-05T11:49:45.362Z,10.60
2022-11-05T11:51:38.467Z,9.10
2022-11-05T11:52:38.454Z,11.80
2022-11-05T11:54:31.346Z,11.00
2022-11-05T11:55:31.337Z,10.70
2022-11-05T11:57:35.317Z,10.70
2022-11-05T11:58:35.303Z,7.00
2022-11-05T12:00:39.312Z,11.20
2022-11-05T12:01:39.328Z,8.10
2022-11-05T12:03:32.226Z,9.70
2022-11-05T12:04:32.210Z,8.50
2022-11-05T12:06:25.126Z,8.00
2022-11-05T12:07:25.108Z,9.50
2022-11-05T12:09:29.082Z,9.90
2022-11-05T12:10:29.073Z,9.10
2022-11-05T12:12:33.058Z,9.20
2022-11-05T12:13:33.177Z,9.70
2022-11-05T12:15:37.021Z,7.00
2022-11-05T12:16:37.003Z,8.90
2022-11-05T12:18:40.994Z,8.00
2022-11-05T12:19:40.984Z,8.60
2022-11-05T12:21:51.541Z,9.00
2022-11-05T12:22:34.137Z,8.60
2022-11-05T12:24:27.015Z,8.00
2022-11-05T12:25:27.005Z,9.00
2022-11-05T12:27:30.992Z,9.00
2022-11-05T12:28:30.972Z,9.10
2022-11-05T12:30:24.084Z,10.70
2022-11-05T12:31:24.063Z,8.10
2022-11-05T12:33:17.515Z,8.70
2022-11-05T12:34:17.148Z,7.50
2022-11-05T12:36:21.126Z,9.10
2022-11-05T12:37:21.107Z,7.10
2022-11-05T12:39:25.095Z,8.40
2022-11-05T12:40:25.082Z,8.80
2022-11-05T12:42:18.519Z,9.70
2022-11-05T12:43:18.762Z,8.40
2022-11-05T12:45:22.483Z,10.90
2022-11-05T12:46:22.465Z,8.30
2022-11-05T12:48:30.311Z,9.30
2022-11-05T12:49:26.441Z,8.30
2022-11-05T12:51:19.544Z,8.30
2022-11-05T12:52:19.526Z,9.80
2022-11-05T12:54:12.429Z,10.00
2022-11-05T12:55:12.417Z,9.80
2022-11-05T12:57:16.392Z,12.00
2022-11-05T12:58:16.383Z,9.70
2022-11-05T13:00:09.641Z,7.90
2022-11-05T13:01:09.696Z,7.20
2022-11-05T13:03:14.054Z,8.90
2022-11-05T13:04:13.603Z,8.80
2022-11-05T13:06:17.610Z,8.30
2022-11-05T13:07:17.589Z,9.60
2022-11-05T13:09:10.710Z,6.60
2022-11-05T13:10:10.750Z,9.20
2022-11-05T13:12:03.811Z,8.40
2022-11-05T13:13:03.790Z,9.10
2022-11-05T13:14:56.720Z,6.80
2022-11-05T13:15:56.709Z,8.50
2022-11-05T13:17:49.655Z,9.20
2022-11-05T13:18:49.629Z,10.60
2022-11-05T13:20:54.111Z,8.70
2022-11-05T13:21:54.094Z,7.80
2022-11-05T13:22:54.085Z,7.00
2022-11-05T13:23:54.074Z,9.30
2022-11-05T13:24:54.068Z,8.50
2022-11-05T13:25:54.055Z,10.40
2022-11-05T13:26:54.053Z,5.70
2022-11-05T13:27:54.046Z,7.30
2022-11-05T13:28:54.050Z,7.50
2022-11-05T13:29:54.073Z,7.90
2022-11-05T13:30:54.020Z,7.20
2022-11-05T13:31:54.009Z,9.60
2022-11-05T13:32:54.003Z,6.90
2022-11-05T13:33:53.996Z,10.10
2022-11-05T13:34:53.989Z,10.10
2022-11-05T13:35:53.978Z,8.90
2022-11-05T13:36:53.972Z,8.60
2022-11-05T13:37:53.966Z,8.90
2022-11-05T13:38:53.955Z,7.40
2022-11-05T13:39:53.949Z,7.70
2022-11-05T13:40:53.938Z,8.90
2022-11-05T13:41:53.932Z,9.60
2022-11-05T13:42:53.921Z,9.10
2022-11-05T13:43:53.914Z,9.70
2022-11-05T13:44:53.911Z,7.60
2022-11-05T13:45:53.898Z,8.60
2022-11-05T13:46:53.890Z,10.50
2022-11-05T13:47:53.881Z,10.50
2022-11-05T13:48:53.877Z,9.40
2022-11-05T13:49:53.867Z,8.40